Flight Track Log - Related Links

Times and Time Zones

All times are in EDT time to prevent confusion due to time zone crossing. See the N172SS flight status page for this flight to view local times or setup timezone preferences in your user account.

Time Position Orientation Groundspeed Altitude Reporting Facility
EDT Latitude Longitude Course Direction KTS MPH feet Rate Location/Type
Sun 08:03:14 PM 41.4903 -90.5319 78° East 87 100 3,100  Level Chicago Center
Sun 08:04:16 PM 41.5011 -90.4978 67° East 89 102 3,600 484 Climbing Chicago Center
Sun 08:05:18 PM 41.5119 -90.4703 62° Northeast 89 102 4,100 532 Climbing Chicago Center
Sun 08:06:00 PM 41.5301 -90.3215 48° Northeast  Level FlightAware Approximate
Sun 08:06:20 PM 41.5203 -90.4469 64° Northeast 83 96 4,700  Level Chicago Center
Sun 08:07:00 PM 41.5452 -90.2909 58° Northeast  Level FlightAware Approximate
Sun 08:07:21 PM 41.5331 -90.4172 60° Northeast 83 96 5,000  Level Chicago Center
Sun 08:08:23 PM 41.5486 -90.3847 57° Northeast 91 105 5,100  Climbing Chicago Center
Sun 08:09:25 PM 41.5703 -90.3450 54° Northeast 100 115 5,000 -97 Descending Chicago Center
Sun 08:10:27 PM 41.5853 -90.3100 60° Northeast 106 122 4,900 -48 Descending Chicago Center
Sun 08:11:29 PM 41.5956 -90.2728 70° East 106 122 4,900  Level Chicago Center
Sun 08:12:31 PM 41.6075 -90.2397 64° Northeast 106 122 4,900 -48 Level Chicago Center
Sun 08:13:33 PM 41.6211 -90.2075 61° Northeast 101 116 4,800  Descending Chicago Center
Sun 08:14:35 PM 41.6339 -90.1589 71° East 113 130 4,900 48 Climbing Chicago Center
Sun 08:15:37 PM 41.6464 -90.1203 67° East 118 136 4,900  Level Chicago Center
Sun 08:16:39 PM 41.6653 -90.0853 54° Northeast 109 125 4,900 -48 Level Chicago Center
Sun 08:17:41 PM 41.6803 -90.0519 59° Northeast 104 120 4,800 -48 Descending Chicago Center
Sun 08:18:43 PM 41.6917 -90.0142 68° East 105 121 4,800 48 Level Chicago Center
Sun 08:19:45 PM 41.7053 -89.9775 64° Northeast 108 124 4,900 48 Climbing Chicago Center
Sun 08:20:47 PM 41.7253 -89.9447 51° Northeast 111 128 4,900  Level Chicago Center
Sun 08:21:49 PM 41.7411 -89.9114 58° Northeast 109 125 4,900  Level Chicago Center
Sun 08:22:51 PM 41.7328 -89.8633 103° East 107 123 4,900 48 Level Chicago Center
Sun 08:23:53 PM 41.7375 -89.8239 81° East 108 124 5,000 48 Climbing Chicago Center
Sun 08:24:55 PM 41.7469 -89.7864 71° East 107 123 5,000  Level Chicago Center
Sun 08:25:57 PM 41.7569 -89.7494 70° East 106 122 5,000 -97 Level Chicago Center
Sun 08:26:59 PM 41.7661 -89.7119 72° East 105 121 4,800 -97 Descending Chicago Center
Sun 08:28:01 PM 41.7764 -89.6658 73° East 108 124 4,800  Level Chicago Center
Sun 08:29:03 PM 41.7758 -89.6264 91° East 107 123 4,800 48 Level Chicago Center
Sun 08:30:06 PM 41.7794 -89.5853 83° East 110 127 4,900 48 Climbing Chicago Center
Sun 08:31:08 PM 41.7906 -89.5494 67° East 106 122 4,900 -48 Level Chicago Center
Sun 08:32:10 PM 41.7961 -89.5086 80° East 110 127 4,800  Descending Chicago Center
Sun 08:33:12 PM 41.8069 -89.4617 73° East 110 127 4,900 48 Climbing Chicago Center
Sun 08:34:14 PM 41.8150 -89.4233 74° East 108 124 4,900  Level Chicago Center
Sun 08:35:16 PM 41.8242 -89.3814 74° East 109 125 4,900  Level Chicago Center

Login

Don't have an account? Register now (free) for customized features, flight alerts, and more!